sensor_id;sensor_type;location;lat;lon;timestamp;pressure;altitude;pressure_sealevel;temperature;humidity
62617;BME280;62539;51.190;6.808;2024-02-04T00:00:44;102087.03;;;18.62;53.06
62617;BME280;62539;51.190;6.808;2024-02-04T00:03:09;102095.81;;;18.61;53.12
62617;BME280;62539;51.190;6.808;2024-02-04T00:05:34;102097.59;;;18.59;53.18
62617;BME280;62539;51.190;6.808;2024-02-04T00:07:59;102095.94;;;18.55;53.49
62617;BME280;62539;51.190;6.808;2024-02-04T00:10:25;102101.19;;;18.55;53.10
62617;BME280;62539;51.190;6.808;2024-02-04T00:12:51;102095.97;;;18.51;53.51
62617;BME280;62539;51.190;6.808;2024-02-04T00:15:17;102089.88;;;18.49;53.50
62617;BME280;62539;51.190;6.808;2024-02-04T00:17:42;102083.75;;;18.47;53.56
62617;BME280;62539;51.190;6.808;2024-02-04T00:20:07;102075.88;;;18.46;53.48
62617;BME280;62539;51.190;6.808;2024-02-04T00:22:33;102068.03;;;18.43;53.42
62617;BME280;62539;51.190;6.808;2024-02-04T00:25:01;102068.06;;;18.41;53.51
62617;BME280;62539;51.190;6.808;2024-02-04T00:27:31;102068.06;;;18.41;53.55
62617;BME280;62539;51.190;6.808;2024-02-04T00:29:56;102064.59;;;18.39;53.60
62617;BME280;62539;51.190;6.808;2024-02-04T00:32:22;102060.22;;;18.38;53.55
62617;BME280;62539;51.190;6.808;2024-02-04T00:34:47;102065.50;;;18.36;53.47
62617;BME280;62539;51.190;6.808;2024-02-04T00:37:12;102074.25;;;18.35;53.52
62617;BME280;62539;51.190;6.808;2024-02-04T00:39:38;102062.91;;;18.35;53.63
62617;BME280;62539;51.190;6.808;2024-02-04T00:42:03;102061.16;;;18.34;53.55
62617;BME280;62539;51.190;6.808;2024-02-04T00:44:29;102064.69;;;18.33;53.60
62617;BME280;62539;51.190;6.808;2024-02-04T00:46:54;102059.47;;;18.30;53.64
62617;BME280;62539;51.190;6.808;2024-02-04T00:49:19;102069.09;;;18.29;53.70
62617;BME280;62539;51.190;6.808;2024-02-04T00:51:44;102063.88;;;18.28;53.66
62617;BME280;62539;51.190;6.808;2024-02-04T00:54:10;102068.28;;;18.26;53.80
62617;BME280;62539;51.190;6.808;2024-02-04T00:56:35;102063.91;;;18.25;53.74
62617;BME280;62539;51.190;6.808;2024-02-04T00:59:03;102070.03;;;18.24;53.69
62617;BME280;62539;51.190;6.808;2024-02-04T01:01:28;102066.53;;;18.23;53.72
62617;BME280;62539;51.190;6.808;2024-02-04T01:03:53;102063.06;;;18.23;53.78
62617;BME280;62539;51.190;6.808;2024-02-04T01:06:19;102063.94;;;18.21;53.77
62617;BME280;62539;51.190;6.808;2024-02-04T01:08:44;102064.84;;;18.19;53.82
62617;BME280;62539;51.190;6.808;2024-02-04T01:11:10;102062.25;;;18.17;53.92
62617;BME280;62539;51.190;6.808;2024-02-04T01:13:35;102059.63;;;18.17;53.79
62617;BME280;62539;51.190;6.808;2024-02-04T01:16:00;102061.38;;;18.15;53.99
62617;BME280;62539;51.190;6.808;2024-02-04T01:18:26;102060.50;;;18.15;53.69
62617;BME280;62539;51.190;6.808;2024-02-04T01:20:51;102064.91;;;18.14;53.88
62617;BME280;62539;51.190;6.808;2024-02-04T01:23:16;102066.69;;;18.12;53.95
62617;BME280;62539;51.190;6.808;2024-02-04T01:25:45;102057.94;;;18.10;53.71
62617;BME280;62539;51.190;6.808;2024-02-04T01:28:10;102057.94;;;18.10;53.73
62617;BME280;62539;51.190;6.808;2024-02-04T01:30:35;102048.34;;;18.09;53.81
62617;BME280;62539;51.190;6.808;2024-02-04T01:33:02;102057.09;;;18.08;54.09
62617;BME280;62539;51.190;6.808;2024-02-04T01:35:27;102059.72;;;18.06;54.04
62617;BME280;62539;51.190;6.808;2024-02-04T01:37:53;102063.25;;;18.05;54.06
62617;BME280;62539;51.190;6.808;2024-02-04T01:40:18;102063.28;;;18.04;53.86
62617;BME280;62539;51.190;6.808;2024-02-04T01:42:43;102064.16;;;18.03;53.96
62617;BME280;62539;51.190;6.808;2024-02-04T01:45:09;102065.06;;;18.02;54.11
62617;BME280;62539;51.190;6.808;2024-02-04T01:47:34;102063.31;;;18.01;54.01
62617;BME280;62539;51.190;6.808;2024-02-04T01:50:00;102063.31;;;18.01;54.13
62617;BME280;62539;51.190;6.808;2024-02-04T01:52:27;102054.56;;;17.99;54.06
62617;BME280;62539;51.190;6.808;2024-02-04T01:54:53;102054.56;;;17.99;54.26
62617;BME280;62539;51.190;6.808;2024-02-04T01:57:19;102055.44;;;17.98;54.13
62617;BME280;62539;51.190;6.808;2024-02-04T01:59:45;102056.31;;;17.97;54.13
62617;BME280;62539;51.190;6.808;2024-02-04T02:02:10;102047.59;;;17.95;54.21
62617;BME280;62539;51.190;6.808;2024-02-04T02:04:36;102047.59;;;17.95;54.19
62617;BME280;62539;51.190;6.808;2024-02-04T02:07:01;102049.38;;;17.92;54.17
62617;BME280;62539;51.190;6.808;2024-02-04T02:09:27;102047.63;;;17.91;54.15
62617;BME280;62539;51.190;6.808;2024-02-04T02:12:00;102051.16;;;17.90;54.24
62617;BME280;62539;51.190;6.808;2024-02-04T02:14:30;102045.91;;;17.90;54.22
62617;BME280;62539;51.190;6.808;2024-02-04T02:16:58;102044.13;;;17.91;54.17
62617;BME280;62539;51.190;6.808;2024-02-04T02:24:42;102035.44;;;17.87;54.28
62617;BME280;62539;51.190;6.808;2024-02-04T02:27:07;102040.69;;;17.87;54.08
62617;BME280;62539;51.190;6.808;2024-02-04T02:29:33;102043.34;;;17.84;54.29
62617;BME280;62539;51.190;6.808;2024-02-04T02:32:00;102040.72;;;17.84;54.26
62617;BME280;62539;51.190;6.808;2024-02-04T02:34:26;102041.59;;;17.83;54.33
62617;BME280;62539;51.190;6.808;2024-02-04T02:37:00;102034.59;;;17.82;54.35
62617;BME280;62539;51.190;6.808;2024-02-04T02:39:32;102034.59;;;17.82;54.44
62617;BME280;62539;51.190;6.808;2024-02-04T02:42:01;102035.50;;;17.81;54.45
62617;BME280;62539;51.190;6.808;2024-02-04T02:44:29;102040.75;;;17.81;54.34
62617;BME280;62539;51.190;6.808;2024-02-04T02:46:56;102038.13;;;17.80;54.38
62617;BME280;62539;51.190;6.808;2024-02-04T02:49:22;102047.78;;;17.79;54.47
62617;BME280;62539;51.190;6.808;2024-02-04T02:51:47;102042.53;;;17.79;54.40
62617;BME280;62539;51.190;6.808;2024-02-04T02:54:13;102044.28;;;17.77;54.37
62617;BME280;62539;51.190;6.808;2024-02-04T02:56:38;102039.03;;;17.77;54.54
62617;BME280;62539;51.190;6.808;2024-02-04T02:59:03;102041.66;;;17.77;54.34
62617;BME280;62539;51.190;6.808;2024-02-04T03:01:29;102037.31;;;17.76;54.17
62617;BME280;62539;51.190;6.808;2024-02-04T03:03:55;102040.81;;;17.75;54.34
62617;BME280;62539;51.190;6.808;2024-02-04T03:06:20;102041.66;;;17.75;54.32
62617;BME280;62539;51.190;6.808;2024-02-04T03:08:45;102040.81;;;17.75;54.38
62617;BME280;62539;51.190;6.808;2024-02-04T03:11:11;102033.81;;;17.74;54.44
62617;BME280;62539;51.190;6.808;2024-02-04T03:13:38;102028.56;;;17.74;54.28
62617;BME280;62539;51.190;6.808;2024-02-04T03:16:04;102032.09;;;17.73;54.35
62617;BME280;62539;51.190;6.808;2024-02-04T03:18:29;102028.56;;;17.72;54.43
62617;BME280;62539;51.190;6.808;2024-02-04T03:20:55;102019.84;;;17.72;54.66
62617;BME280;62539;51.190;6.808;2024-02-04T03:23:20;102026.84;;;17.71;54.56
62617;BME280;62539;51.190;6.808;2024-02-04T03:25:45;102034.72;;;17.71;54.53
62617;BME280;62539;51.190;6.808;2024-02-04T03:28:10;102028.63;;;17.71;54.36
62617;BME280;62539;51.190;6.808;2024-02-04T03:30:36;102031.25;;;17.71;54.36
62617;BME280;62539;51.190;6.808;2024-02-04T03:33:01;102032.13;;;17.70;54.33
62617;BME280;62539;51.190;6.808;2024-02-04T03:35:26;102021.63;;;17.70;54.51
62617;BME280;62539;51.190;6.808;2024-02-04T03:37:51;102023.38;;;17.69;54.44
62617;BME280;62539;51.190;6.808;2024-02-04T03:40:17;102014.63;;;17.69;54.43
62617;BME280;62539;51.190;6.808;2024-02-04T03:42:44;102023.41;;;17.68;54.36
62617;BME280;62539;51.190;6.808;2024-02-04T03:45:09;102023.41;;;17.68;54.54
62617;BME280;62539;51.190;6.808;2024-02-04T03:47:34;102023.41;;;17.68;54.38
62617;BME280;62539;51.190;6.808;2024-02-04T03:50:00;102025.16;;;17.66;54.37
62617;BME280;62539;51.190;6.808;2024-02-04T03:52:25;102019.91;;;17.66;54.38
62617;BME280;62539;51.190;6.808;2024-02-04T03:54:50;102017.28;;;17.66;54.41
62617;BME280;62539;51.190;6.808;2024-02-04T03:57:16;102021.66;;;17.65;54.26
62617;BME280;62539;51.190;6.808;2024-02-04T03:59:44;102023.44;;;17.65;54.47
62617;BME280;62539;51.190;6.808;2024-02-04T04:02:11;102028.69;;;17.65;54.36
62617;BME280;62539;51.190;6.808;2024-02-04T04:04:36;102026.06;;;17.63;54.44
62617;BME280;62539;51.190;6.808;2024-02-04T04:07:01;102024.31;;;17.63;54.52
62617;BME280;62539;51.190;6.808;2024-02-04T04:09:26;102011.19;;;17.62;54.29
62617;BME280;62539;51.190;6.808;2024-02-04T04:11:52;102012.06;;;17.61;54.57
62617;BME280;62539;51.190;6.808;2024-02-04T04:14:17;102019.94;;;17.61;54.57
62617;BME280;62539;51.190;6.808;2024-02-04T04:16:42;102019.09;;;17.60;54.28
62617;BME280;62539;51.190;6.808;2024-02-04T04:19:08;102013.84;;;17.59;54.30
62617;BME280;62539;51.190;6.808;2024-02-04T04:21:33;102023.50;;;17.58;54.48
62617;BME280;62539;51.190;6.808;2024-02-04T04:23:58;102022.59;;;17.58;54.41
62617;BME280;62539;51.190;6.808;2024-02-04T04:26:23;102020.88;;;17.58;54.33
62617;BME280;62539;51.190;6.808;2024-02-04T04:28:49;102017.34;;;17.58;54.41
62617;BME280;62539;51.190;6.808;2024-02-04T04:31:14;102032.25;;;17.57;54.41
62617;BME280;62539;51.190;6.808;2024-02-04T04:33:40;102022.63;;;17.56;54.59
62617;BME280;62539;51.190;6.808;2024-02-04T04:36:05;102028.78;;;17.55;54.47
62617;BME280;62539;51.190;6.808;2024-02-04T04:38:31;102041.00;;;17.56;54.50
62617;BME280;62539;51.190;6.808;2024-02-04T04:40:56;102054.13;;;17.56;54.51
62617;BME280;62539;51.190;6.808;2024-02-04T04:43:22;102059.38;;;17.56;54.42
62617;BME280;62539;51.190;6.808;2024-02-04T04:45:47;102057.63;;;17.55;54.47
62617;BME280;62539;51.190;6.808;2024-02-04T04:48:12;102059.38;;;17.55;54.48
62617;BME280;62539;51.190;6.808;2024-02-04T04:50:38;102058.53;;;17.54;54.46
62617;BME280;62539;51.190;6.808;2024-02-04T04:53:03;102041.88;;;17.54;54.32
62617;BME280;62539;51.190;6.808;2024-02-04T04:55:28;102037.53;;;17.54;54.44
62617;BME280;62539;51.190;6.808;2024-02-04T04:57:53;102027.91;;;17.53;54.49
62617;BME280;62539;51.190;6.808;2024-02-04T05:00:19;102016.56;;;17.51;54.47
62617;BME280;62539;51.190;6.808;2024-02-04T05:02:44;102016.56;;;17.51;54.31
62617;BME280;62539;51.190;6.808;2024-02-04T05:05:11;102022.66;;;17.52;54.58
62617;BME280;62539;51.190;6.808;2024-02-04T05:07:37;102027.94;;;17.50;54.60
62617;BME280;62539;51.190;6.808;2024-02-04T05:10:02;102030.50;;;17.55;54.44
62617;BME280;62539;51.190;6.808;2024-02-04T05:12:27;102030.44;;;17.62;54.35
62617;BME280;62539;51.190;6.808;2024-02-04T05:14:53;102030.34;;;17.70;54.19
62617;BME280;62539;51.190;6.808;2024-02-04T05:17:18;102025.88;;;17.78;54.18
62617;BME280;62539;51.190;6.808;2024-02-04T05:19:43;102031.06;;;17.86;53.89
62617;BME280;62539;51.190;6.808;2024-02-04T05:22:09;102033.63;;;17.92;53.78
62617;BME280;62539;51.190;6.808;2024-02-04T05:24:34;102011.66;;;18.01;53.57
62617;BME280;62539;51.190;6.808;2024-02-04T05:27:00;102011.56;;;18.09;53.38
62617;BME280;62539;51.190;6.808;2024-02-04T05:29:25;102015.84;;;18.16;53.28
62617;BME280;62539;51.190;6.808;2024-02-04T05:31:50;102028.03;;;18.22;53.09
62617;BME280;62539;51.190;6.808;2024-02-04T05:34:17;102030.59;;;18.27;53.04
62617;BME280;62539;51.190;6.808;2024-02-04T05:36:42;102027.94;;;18.30;52.95
62617;BME280;62539;51.190;6.808;2024-02-04T05:39:11;102023.50;;;18.35;53.02
62617;BME280;62539;51.190;6.808;2024-02-04T05:41:37;102012.94;;;18.36;52.79
62617;BME280;62539;51.190;6.808;2024-02-04T05:44:02;102006.78;;;18.39;52.75
62617;BME280;62539;51.190;6.808;2024-02-04T05:46:28;102004.16;;;18.38;52.71
62617;BME280;62539;51.190;6.808;2024-02-04T05:48:53;102003.28;;;18.40;52.67
62617;BME280;62539;51.190;6.808;2024-02-04T05:51:18;101987.50;;;18.40;52.70
62617;BME280;62539;51.190;6.808;2024-02-04T05:53:44;101979.63;;;18.40;52.66
62617;BME280;62539;51.190;6.808;2024-02-04T05:56:09;101982.25;;;18.40;52.63
62617;BME280;62539;51.190;6.808;2024-02-04T05:58:34;101987.50;;;18.40;52.64
62617;BME280;62539;51.190;6.808;2024-02-04T06:01:00;101980.47;;;18.42;52.54
62617;BME280;62539;51.190;6.808;2024-02-04T06:03:25;101970.81;;;18.44;52.50
62617;BME280;62539;51.190;6.808;2024-02-04T06:05:50;101962.03;;;18.45;52.67
62617;BME280;62539;51.190;6.808;2024-02-04T06:08:15;101979.50;;;18.48;52.50
62617;BME280;62539;51.190;6.808;2024-02-04T06:10:41;101978.66;;;18.47;52.44
62617;BME280;62539;51.190;6.808;2024-02-04T06:13:06;101981.25;;;18.49;52.40
62617;BME280;62539;51.190;6.808;2024-02-04T06:15:32;101975.13;;;18.48;52.62
62617;BME280;62539;51.190;6.808;2024-02-04T06:17:57;101974.25;;;18.49;52.44
62617;BME280;62539;51.190;6.808;2024-02-04T06:20:22;101983.00;;;18.48;52.40
62617;BME280;62539;51.190;6.808;2024-02-04T06:22:47;102000.53;;;18.49;52.37
62617;BME280;62539;51.190;6.808;2024-02-04T06:25:13;101990.88;;;18.50;52.43
62617;BME280;62539;51.190;6.808;2024-02-04T06:27:38;101987.38;;;18.49;52.35
62617;BME280;62539;51.190;6.808;2024-02-04T06:30:04;101988.22;;;18.50;52.38
62617;BME280;62539;51.190;6.808;2024-02-04T06:32:29;101977.72;;;18.50;52.33
62617;BME280;62539;51.190;6.808;2024-02-04T06:34:55;101983.88;;;18.50;52.29
62617;BME280;62539;51.190;6.808;2024-02-04T06:37:20;101971.63;;;18.49;52.33
62617;BME280;62539;51.190;6.808;2024-02-04T06:39:46;101963.69;;;18.51;52.39
62617;BME280;62539;51.190;6.808;2024-02-04T06:42:11;101954.03;;;18.53;52.42
62617;BME280;62539;51.190;6.808;2024-02-04T06:44:36;101947.81;;;18.57;52.49
62617;BME280;62539;51.190;6.808;2024-02-04T06:47:02;101956.56;;;18.59;52.29
62617;BME280;62539;51.190;6.808;2024-02-04T06:49:27;101957.34;;;18.64;52.54
62617;BME280;62539;51.190;6.808;2024-02-04T06:51:53;101961.66;;;18.69;52.02
62617;BME280;62539;51.190;6.808;2024-02-04T06:54:24;101967.78;;;18.71;52.01
62617;BME280;62539;51.190;6.808;2024-02-04T06:56:51;101967.72;;;18.72;51.95
62617;BME280;62539;51.190;6.808;2024-02-04T06:59:17;101965.94;;;18.74;51.98
62617;BME280;62539;51.190;6.808;2024-02-04T07:01:42;101955.44;;;18.74;51.91
62617;BME280;62539;51.190;6.808;2024-02-04T07:04:08;101949.31;;;18.74;51.81
62617;BME280;62539;51.190;6.808;2024-02-04T07:06:33;101949.28;;;18.75;51.67
62617;BME280;62539;51.190;6.808;2024-02-04T07:08:58;101942.28;;;18.74;52.03
62617;BME280;62539;51.190;6.808;2024-02-04T07:11:24;101942.31;;;18.73;51.95
62617;BME280;62539;51.190;6.808;2024-02-04T07:13:49;101949.31;;;18.72;51.92
62617;BME280;62539;51.190;6.808;2024-02-04T07:16:14;101955.47;;;18.71;51.97
62617;BME280;62539;51.190;6.808;2024-02-04T07:18:40;101953.75;;;18.70;51.98
62617;BME280;62539;51.190;6.808;2024-02-04T07:21:05;101957.25;;;18.69;52.06
62617;BME280;62539;51.190;6.808;2024-02-04T07:23:30;101955.47;;;18.71;52.07
62617;BME280;62539;51.190;6.808;2024-02-04T07:25:56;101958.94;;;18.73;52.03
62617;BME280;62539;51.190;6.808;2024-02-04T07:28:21;101966.78;;;18.76;52.01
62617;BME280;62539;51.190;6.808;2024-02-04T07:30:47;101978.13;;;18.78;51.94
62617;BME280;62539;51.190;6.808;2024-02-04T07:33:12;101977.19;;;18.83;51.89
62617;BME280;62539;51.190;6.808;2024-02-04T07:35:37;101963.16;;;18.85;51.92
62617;BME280;62539;51.190;6.808;2024-02-04T07:38:03;101971.00;;;18.87;51.72
62617;BME280;62539;51.190;6.808;2024-02-04T07:40:28;101976.25;;;18.87;51.81
62617;BME280;62539;51.190;6.808;2024-02-04T07:42:55;101983.25;;;18.88;51.72
62617;BME280;62539;51.190;6.808;2024-02-04T07:45:20;101985.88;;;18.88;51.72
62617;BME280;62539;51.190;6.808;2024-02-04T07:47:46;101984.13;;;18.87;51.60
62617;BME280;62539;51.190;6.808;2024-02-04T07:50:11;101978.03;;;18.85;51.83
62617;BME280;62539;51.190;6.808;2024-02-04T07:52:36;101977.19;;;18.84;51.83
62617;BME280;62539;51.190;6.808;2024-02-04T07:55:02;101966.69;;;18.83;51.86
62617;BME280;62539;51.190;6.808;2024-02-04T07:57:27;101965.84;;;18.80;51.96
62617;BME280;62539;51.190;6.808;2024-02-04T07:59:53;101972.88;;;18.78;51.95
62617;BME280;62539;51.190;6.808;2024-02-04T08:02:18;101965.88;;;18.79;52.06
62617;BME280;62539;51.190;6.808;2024-02-04T08:04:43;101962.34;;;18.80;51.97
62617;BME280;62539;51.190;6.808;2024-02-04T08:07:09;101971.94;;;18.83;51.89
62617;BME280;62539;51.190;6.808;2024-02-04T08:09:34;101968.41;;;18.85;51.75
62617;BME280;62539;51.190;6.808;2024-02-04T08:11:59;101963.94;;;18.89;51.64
62617;BME280;62539;51.190;6.808;2024-02-04T08:14:25;101959.53;;;18.91;51.79
62617;BME280;62539;51.190;6.808;2024-02-04T08:16:50;101954.22;;;18.95;51.59
62617;BME280;62539;51.190;6.808;2024-02-04T08:19:16;101955.03;;;18.99;51.50
62617;BME280;62539;51.190;6.808;2024-02-04T08:21:41;101948.84;;;19.03;51.32
62617;BME280;62539;51.190;6.808;2024-02-04T08:24:07;101961.94;;;19.06;51.41
62617;BME280;62539;51.190;6.808;2024-02-04T08:26:32;101968.94;;;19.07;51.42
62617;BME280;62539;51.190;6.808;2024-02-04T08:28:57;101970.72;;;19.05;51.32
62617;BME280;62539;51.190;6.808;2024-02-04T08:31:23;101975.06;;;19.08;51.28
62617;BME280;62539;51.190;6.808;2024-02-04T08:33:48;101969.81;;;19.06;51.32
62617;BME280;62539;51.190;6.808;2024-02-04T08:36:13;101981.22;;;19.05;51.39
62617;BME280;62539;51.190;6.808;2024-02-04T08:38:38;101974.28;;;19.03;51.20
62617;BME280;62539;51.190;6.808;2024-02-04T08:41:04;101961.13;;;19.03;51.46
62617;BME280;62539;51.190;6.808;2024-02-04T08:43:29;101969.03;;;19.01;51.28
62617;BME280;62539;51.190;6.808;2024-02-04T08:45:54;101964.59;;;19.05;51.34
62617;BME280;62539;51.190;6.808;2024-02-04T08:48:20;101956.66;;;19.06;51.38
62617;BME280;62539;51.190;6.808;2024-02-04T08:50:45;101961.88;;;19.09;51.13
62617;BME280;62539;51.190;6.808;2024-02-04T08:53:10;101968.88;;;19.10;51.21
62617;BME280;62539;51.190;6.808;2024-02-04T08:55:36;101964.44;;;19.13;51.44
62617;BME280;62539;51.190;6.808;2024-02-04T08:58:01;101963.56;;;19.14;51.29
62617;BME280;62539;51.190;6.808;2024-02-04T09:00:26;101957.34;;;19.19;51.17
62617;BME280;62539;51.190;6.808;2024-02-04T09:02:51;101967.75;;;19.24;51.09
62617;BME280;62539;51.190;6.808;2024-02-04T09:05:17;101965.94;;;19.28;51.03
62617;BME280;62539;51.190;6.808;2024-02-04T09:07:43;101963.28;;;19.29;50.76
62617;BME280;62539;51.190;6.808;2024-02-04T09:10:08;101961.53;;;19.30;50.92
62617;BME280;62539;51.190;6.808;2024-02-04T09:12:34;101959.72;;;19.32;50.87
62617;BME280;62539;51.190;6.808;2024-02-04T09:14:59;101954.44;;;19.33;50.83
62617;BME280;62539;51.190;6.808;2024-02-04T09:17:24;101957.91;;;19.35;50.83
62617;BME280;62539;51.190;6.808;2024-02-04T09:19:49;101973.69;;;19.35;50.67
62617;BME280;62539;51.190;6.808;2024-02-04T09:22:15;101971.06;;;19.35;50.64
62617;BME280;62539;51.190;6.808;2024-02-04T09:24:40;101982.53;;;19.31;50.83
62617;BME280;62539;51.190;6.808;2024-02-04T09:27:05;101976.47;;;19.26;51.04
62617;BME280;62539;51.190;6.808;2024-02-04T09:29:31;101993.16;;;19.25;51.01
62617;BME280;62539;51.190;6.808;2024-02-04T09:31:56;101984.44;;;19.23;51.28
62617;BME280;62539;51.190;6.808;2024-02-04T09:34:21;101978.28;;;19.24;51.32
62617;BME280;62539;51.190;6.808;2024-02-04T09:36:47;101982.59;;;19.28;51.22
62617;BME280;62539;51.190;6.808;2024-02-04T09:39:12;101980.78;;;19.30;51.14
62617;BME280;62539;51.190;6.808;2024-02-04T09:41:37;101977.22;;;19.34;50.96
62617;BME280;62539;51.190;6.808;2024-02-04T09:44:03;101986.72;;;19.42;50.91
62617;BME280;62539;51.190;6.808;2024-02-04T09:46:29;101977.88;;;19.46;50.72
62617;BME280;62539;51.190;6.808;2024-02-04T09:48:55;101969.00;;;19.51;50.49
62617;BME280;62539;51.190;6.808;2024-02-04T09:51:21;101973.38;;;19.52;50.47
62617;BME280;62539;51.190;6.808;2024-02-04T09:53:51;101969.81;;;19.55;50.54
62617;BME280;62539;51.190;6.808;2024-02-04T09:56:17;101958.38;;;19.56;50.46
62617;BME280;62539;51.190;6.808;2024-02-04T09:58:43;101967.94;;;19.60;50.21
62617;BME280;62539;51.190;6.808;2024-02-04T10:01:08;101966.19;;;19.61;50.16
62617;BME280;62539;51.190;6.808;2024-02-04T10:03:34;101980.19;;;19.63;50.18
62617;BME280;62539;51.190;6.808;2024-02-04T10:05:59;101967.09;;;19.60;50.22
62617;BME280;62539;51.190;6.808;2024-02-04T10:08:24;101972.38;;;19.58;50.37
62617;BME280;62539;51.190;6.808;2024-02-04T10:10:50;101965.38;;;19.59;50.33
62617;BME280;62539;51.190;6.808;2024-02-04T10:13:15;101971.53;;;19.56;50.32
62617;BME280;62539;51.190;6.808;2024-02-04T10:15:41;101969.56;;;19.67;49.94
62617;BME280;62539;51.190;6.808;2024-02-04T10:18:09;101971.22;;;19.72;49.91
62617;BME280;62539;51.190;6.808;2024-02-04T10:20:34;101969.38;;;19.77;49.80
62617;BME280;62539;51.190;6.808;2024-02-04T10:23:00;101956.81;;;19.91;49.58
62617;BME280;62539;51.190;6.808;2024-02-04T10:25:26;101972.28;;;20.07;49.08
62617;BME280;62539;51.190;6.808;2024-02-04T10:27:52;101972.34;;;20.04;49.37
62617;BME280;62539;51.190;6.808;2024-02-04T10:30:21;101973.44;;;19.95;49.20
62617;BME280;62539;51.190;6.808;2024-02-04T10:32:53;101976.25;;;19.84;49.66
62617;BME280;62539;51.190;6.808;2024-02-04T10:35:25;101963.19;;;19.79;49.96
62617;BME280;62539;51.190;6.808;2024-02-04T10:37:51;101971.09;;;19.79;49.73
62617;BME280;62539;51.190;6.808;2024-02-04T10:40:17;101957.94;;;19.79;49.64
62617;BME280;62539;51.190;6.808;2024-02-04T10:42:44;101956.91;;;19.85;50.00
62617;BME280;62539;51.190;6.808;2024-02-04T10:45:10;101965.72;;;19.84;50.05
62617;BME280;62539;51.190;6.808;2024-02-04T10:47:37;101974.63;;;19.77;49.78
62617;BME280;62539;51.190;6.808;2024-02-04T10:50:04;101963.28;;;19.75;50.04
62617;BME280;62539;51.190;6.808;2024-02-04T10:52:35;101962.44;;;19.73;49.93
62617;BME280;62539;51.190;6.808;2024-02-04T10:55:04;101964.09;;;19.77;49.95
62617;BME280;62539;51.190;6.808;2024-02-04T10:57:32;101972.78;;;19.82;50.05
62617;BME280;62539;51.190;6.808;2024-02-04T10:59:59;101965.69;;;19.86;50.81
62617;BME280;62539;51.190;6.808;2024-02-04T11:02:24;101957.69;;;19.92;51.83
62617;BME280;62539;51.190;6.808;2024-02-04T11:04:50;101960.22;;;19.96;52.45
62617;BME280;62539;51.190;6.808;2024-02-04T11:07:17;101952.31;;;19.98;53.00
62617;BME280;62539;51.190;6.808;2024-02-04T11:09:45;101960.22;;;19.96;53.47
62617;BME280;62539;51.190;6.808;2024-02-04T11:12:16;101960.28;;;19.93;53.61
62617;BME280;62539;51.190;6.808;2024-02-04T11:14:46;101963.88;;;19.89;54.00
62617;BME280;62539;51.190;6.808;2024-02-04T11:17:42;101949.84;;;19.87;54.12
62617;BME280;62539;51.190;6.808;2024-02-04T11:23:32;101939.38;;;19.84;54.37
62617;BME280;62539;51.190;6.808;2024-02-04T11:25:59;101939.44;;;19.81;54.43
62617;BME280;62539;51.190;6.808;2024-02-04T11:28:26;101940.47;;;19.75;54.42
62617;BME280;62539;51.190;6.808;2024-02-04T11:30:51;101929.09;;;19.72;54.26
62617;BME280;62539;51.190;6.808;2024-02-04T11:33:21;101929.94;;;19.74;54.16
62617;BME280;62539;51.190;6.808;2024-02-04T11:35:47;101928.28;;;19.69;54.27
62617;BME280;62539;51.190;6.808;2024-02-04T11:38:17;101927.38;;;19.71;54.18
62617;BME280;62539;51.190;6.808;2024-02-04T11:40:42;101918.56;;;19.72;54.00
62617;BME280;62539;51.190;6.808;2024-02-04T11:43:12;101924.66;;;19.75;53.83
62617;BME280;62539;51.190;6.808;2024-02-04T11:45:42;101916.66;;;19.80;53.48
62617;BME280;62539;51.190;6.808;2024-02-04T11:48:11;101899.94;;;19.81;53.48
62617;BME280;62539;51.190;6.808;2024-02-04T11:50:37;101910.47;;;19.81;53.35
62617;BME280;62539;51.190;6.808;2024-02-04T11:53:08;101910.53;;;19.79;53.73
62617;BME280;62539;51.190;6.808;2024-02-04T11:55:34;101905.25;;;19.79;54.65
62617;BME280;62539;51.190;6.808;2024-02-04T11:58:01;101897.38;;;19.79;54.63
62617;BME280;62539;51.190;6.808;2024-02-04T12:00:26;101895.66;;;19.77;54.53
62617;BME280;62539;51.190;6.808;2024-02-04T12:05:27;101902.72;;;19.75;54.00
62617;BME280;62539;51.190;6.808;2024-02-04T12:07:53;101898.34;;;19.74;53.94
62617;BME280;62539;51.190;6.808;2024-02-04T12:10:18;101892.25;;;19.72;54.17
62617;BME280;62539;51.190;6.808;2024-02-04T12:12:44;101883.44;;;19.74;54.97
62617;BME280;62539;51.190;6.808;2024-02-04T12:15:10;101890.38;;;19.77;55.36
62617;BME280;62539;51.190;6.808;2024-02-04T12:17:36;101890.38;;;19.78;55.52
62617;BME280;62539;51.190;6.808;2024-02-04T12:20:01;101897.31;;;19.81;55.34
62617;BME280;62539;51.190;6.808;2024-02-04T12:22:30;101898.22;;;19.80;55.34
62617;BME280;62539;51.190;6.808;2024-02-04T12:24:56;101890.31;;;19.80;55.20
62617;BME280;62539;51.190;6.808;2024-02-04T12:27:22;101892.13;;;19.78;55.66
62617;BME280;62539;51.190;6.808;2024-02-04T12:29:51;101889.47;;;19.79;55.46
62617;BME280;62539;51.190;6.808;2024-02-04T12:32:17;101887.66;;;19.81;55.83
62617;BME280;62539;51.190;6.808;2024-02-04T12:34:47;101888.53;;;19.82;55.70
62617;BME280;62539;51.190;6.808;2024-02-04T12:37:13;101880.63;;;19.82;54.94
62617;BME280;62539;51.190;6.808;2024-02-04T12:39:38;101879.75;;;19.81;55.03
62617;BME280;62539;51.190;6.808;2024-02-04T12:42:04;101881.53;;;19.81;55.06
62617;BME280;62539;51.190;6.808;2024-02-04T12:44:29;101875.41;;;19.80;55.11
62617;BME280;62539;51.190;6.808;2024-02-04T12:46:55;101872.72;;;19.82;55.59
62617;BME280;62539;51.190;6.808;2024-02-04T12:49:21;101863.91;;;19.85;55.54
62617;BME280;62539;51.190;6.808;2024-02-04T12:51:47;101865.63;;;19.86;55.67
62617;BME280;62539;51.190;6.808;2024-02-04T12:54:12;101865.59;;;19.87;55.86